sensor_id;sensor_type;location;lat;lon;timestamp;P1;durP1;ratioP1;P2;durP2;ratioP2
28629;SDS011;15817;42.130;24.762;2023-03-16T00:00:45;11.05;;;6.57;;
28629;SDS011;15817;42.130;24.762;2023-03-16T00:03:11;11.75;;;6.53;;
28629;SDS011;15817;42.130;24.762;2023-03-16T00:05:47;11.25;;;6.10;;
28629;SDS011;15817;42.130;24.762;2023-03-16T00:08:14;12.13;;;7.10;;
28629;SDS011;15817;42.130;24.762;2023-03-16T00:10:40;11.25;;;6.32;;
28629;SDS011;15817;42.130;24.762;2023-03-16T00:15:41;9.45;;;5.32;;
28629;SDS011;15817;42.130;24.762;2023-03-16T00:18:14;8.00;;;5.20;;
28629;SDS011;15817;42.130;24.762;2023-03-16T00:20:40;16.48;;;6.20;;
28629;SDS011;15817;42.130;24.762;2023-03-16T00:23:05;9.38;;;5.10;;
28629;SDS011;15817;42.130;24.762;2023-03-16T00:25:31;7.28;;;4.88;;
28629;SDS011;15817;42.130;24.762;2023-03-16T00:27:58;7.38;;;5.10;;
28629;SDS011;15817;42.130;24.762;2023-03-16T00:30:27;10.88;;;5.32;;
28629;SDS011;15817;42.130;24.762;2023-03-16T00:32:52;7.90;;;4.47;;
28629;SDS011;15817;42.130;24.762;2023-03-16T00:35:18;7.68;;;4.70;;
28629;SDS011;15817;42.130;24.762;2023-03-16T00:40:44;8.30;;;4.97;;
28629;SDS011;15817;42.130;24.762;2023-03-16T00:46:21;9.57;;;5.05;;
28629;SDS011;15817;42.130;24.762;2023-03-16T00:48:50;12.10;;;5.38;;
28629;SDS011;15817;42.130;24.762;2023-03-16T00:51:17;7.53;;;5.07;;
28629;SDS011;15817;42.130;24.762;2023-03-16T00:53:44;8.25;;;4.55;;
28629;SDS011;15817;42.130;24.762;2023-03-16T00:56:11;15.38;;;4.90;;
28629;SDS011;15817;42.130;24.762;2023-03-16T00:58:38;14.55;;;5.50;;
28629;SDS011;15817;42.130;24.762;2023-03-16T01:01:05;7.78;;;4.85;;
28629;SDS011;15817;42.130;24.762;2023-03-16T01:03:37;8.32;;;4.72;;
28629;SDS011;15817;42.130;24.762;2023-03-16T01:06:07;7.18;;;4.25;;
28629;SDS011;15817;42.130;24.762;2023-03-16T01:08:35;7.60;;;4.65;;
28629;SDS011;15817;42.130;24.762;2023-03-16T01:11:06;7.88;;;4.97;;
28629;SDS011;15817;42.130;24.762;2023-03-16T01:13:38;8.00;;;5.45;;
28629;SDS011;15817;42.130;24.762;2023-03-16T01:16:04;7.28;;;4.75;;
28629;SDS011;15817;42.130;24.762;2023-03-16T01:18:31;8.02;;;4.95;;
28629;SDS011;15817;42.130;24.762;2023-03-16T01:21:03;5.88;;;4.70;;
28629;SDS011;15817;42.130;24.762;2023-03-16T01:23:32;10.30;;;5.10;;
28629;SDS011;15817;42.130;24.762;2023-03-16T01:25:58;7.10;;;5.07;;
28629;SDS011;15817;42.130;24.762;2023-03-16T01:28:25;7.13;;;4.13;;
28629;SDS011;15817;42.130;24.762;2023-03-16T01:30:53;9.93;;;5.15;;
28629;SDS011;15817;42.130;24.762;2023-03-16T01:33:24;10.18;;;5.40;;
28629;SDS011;15817;42.130;24.762;2023-03-16T01:35:55;8.65;;;5.05;;
28629;SDS011;15817;42.130;24.762;2023-03-16T01:38:23;8.45;;;4.95;;
28629;SDS011;15817;42.130;24.762;2023-03-16T01:40:50;9.93;;;4.43;;
28629;SDS011;15817;42.130;24.762;2023-03-16T01:43:19;8.07;;;4.15;;
28629;SDS011;15817;42.130;24.762;2023-03-16T01:54:06;14.05;;;3.05;;
28629;SDS011;15817;42.130;24.762;2023-03-16T01:59:46;5.03;;;2.10;;
28629;SDS011;15817;42.130;24.762;2023-03-16T02:02:14;4.07;;;1.85;;
28629;SDS011;15817;42.130;24.762;2023-03-16T02:04:45;4.60;;;2.28;;
28629;SDS011;15817;42.130;24.762;2023-03-16T02:07:23;6.32;;;2.08;;
28629;SDS011;15817;42.130;24.762;2023-03-16T02:09:54;6.60;;;2.00;;
28629;SDS011;15817;42.130;24.762;2023-03-16T02:12:25;7.03;;;2.15;;
28629;SDS011;15817;42.130;24.762;2023-03-16T02:14:54;3.08;;;1.95;;
28629;SDS011;15817;42.130;24.762;2023-03-16T02:17:24;6.43;;;1.98;;
28629;SDS011;15817;42.130;24.762;2023-03-16T02:22:52;2.35;;;1.83;;
28629;SDS011;15817;42.130;24.762;2023-03-16T02:25:24;2.10;;;1.90;;
28629;SDS011;15817;42.130;24.762;2023-03-16T02:30:46;5.90;;;2.80;;
28629;SDS011;15817;42.130;24.762;2023-03-16T02:33:12;6.05;;;2.30;;
28629;SDS011;15817;42.130;24.762;2023-03-16T02:35:42;3.22;;;2.05;;
28629;SDS011;15817;42.130;24.762;2023-03-16T02:38:08;4.53;;;2.20;;
28629;SDS011;15817;42.130;24.762;2023-03-16T02:40:40;4.75;;;1.90;;
28629;SDS011;15817;42.130;24.762;2023-03-16T02:43:18;6.63;;;2.00;;
28629;SDS011;15817;42.130;24.762;2023-03-16T02:45:59;2.53;;;1.90;;
28629;SDS011;15817;42.130;24.762;2023-03-16T02:51:01;2.35;;;1.70;;
28629;SDS011;15817;42.130;24.762;2023-03-16T02:53:27;2.58;;;1.83;;
28629;SDS011;15817;42.130;24.762;2023-03-16T02:55:55;6.13;;;2.25;;
28629;SDS011;15817;42.130;24.762;2023-03-16T02:58:26;3.10;;;1.85;;
28629;SDS011;15817;42.130;24.762;2023-03-16T03:00:55;3.78;;;1.85;;
28629;SDS011;15817;42.130;24.762;2023-03-16T03:03:21;3.40;;;2.35;;
28629;SDS011;15817;42.130;24.762;2023-03-16T03:05:47;8.55;;;1.70;;
28629;SDS011;15817;42.130;24.762;2023-03-16T03:08:14;5.15;;;2.13;;
28629;SDS011;15817;42.130;24.762;2023-03-16T03:10:40;5.78;;;1.98;;
28629;SDS011;15817;42.130;24.762;2023-03-16T03:13:07;4.18;;;2.08;;
28629;SDS011;15817;42.130;24.762;2023-03-16T03:15:34;4.93;;;2.03;;
28629;SDS011;15817;42.130;24.762;2023-03-16T03:18:05;12.15;;;2.75;;
28629;SDS011;15817;42.130;24.762;2023-03-16T03:20:32;18.27;;;2.50;;
28629;SDS011;15817;42.130;24.762;2023-03-16T03:22:58;6.15;;;2.40;;
28629;SDS011;15817;42.130;24.762;2023-03-16T03:25:24;6.53;;;2.40;;
28629;SDS011;15817;42.130;24.762;2023-03-16T03:27:52;5.60;;;2.45;;
28629;SDS011;15817;42.130;24.762;2023-03-16T03:30:22;5.22;;;2.15;;
28629;SDS011;15817;42.130;24.762;2023-03-16T03:32:52;4.25;;;2.30;;
28629;SDS011;15817;42.130;24.762;2023-03-16T03:35:23;4.70;;;2.40;;
28629;SDS011;15817;42.130;24.762;2023-03-16T03:37:53;7.13;;;2.30;;
28629;SDS011;15817;42.130;24.762;2023-03-16T03:40:19;4.40;;;2.47;;
28629;SDS011;15817;42.130;24.762;2023-03-16T03:42:49;3.92;;;2.15;;
28629;SDS011;15817;42.130;24.762;2023-03-16T03:45:15;14.85;;;2.00;;
28629;SDS011;15817;42.130;24.762;2023-03-16T03:47:43;2.67;;;1.98;;
28629;SDS011;15817;42.130;24.762;2023-03-16T03:50:17;4.78;;;1.83;;
28629;SDS011;15817;42.130;24.762;2023-03-16T03:53:17;8.30;;;1.80;;
28629;SDS011;15817;42.130;24.762;2023-03-16T03:56:04;3.78;;;2.13;;
28629;SDS011;15817;42.130;24.762;2023-03-16T03:58:30;7.50;;;2.05;;
28629;SDS011;15817;42.130;24.762;2023-03-16T04:00:56;6.97;;;2.22;;
28629;SDS011;15817;42.130;24.762;2023-03-16T04:03:22;10.18;;;2.30;;
28629;SDS011;15817;42.130;24.762;2023-03-16T04:05:59;4.05;;;1.70;;
28629;SDS011;15817;42.130;24.762;2023-03-16T04:08:29;5.90;;;2.03;;
28629;SDS011;15817;42.130;24.762;2023-03-16T04:10:55;4.57;;;2.05;;
28629;SDS011;15817;42.130;24.762;2023-03-16T04:13:21;6.07;;;2.17;;
28629;SDS011;15817;42.130;24.762;2023-03-16T04:57:35;6.00;;;1.80;;
28629;SDS011;15817;42.130;24.762;2023-03-16T05:00:02;1.63;;;1.48;;
28629;SDS011;15817;42.130;24.762;2023-03-16T05:02:41;4.78;;;1.42;;
28629;SDS011;15817;42.130;24.762;2023-03-16T05:05:10;8.75;;;1.92;;
28629;SDS011;15817;42.130;24.762;2023-03-16T05:07:40;8.98;;;1.65;;
28629;SDS011;15817;42.130;24.762;2023-03-16T05:10:13;8.43;;;1.95;;
28629;SDS011;15817;42.130;24.762;2023-03-16T05:12:40;3.20;;;1.30;;
28629;SDS011;15817;42.130;24.762;2023-03-16T05:15:06;3.67;;;1.40;;
28629;SDS011;15817;42.130;24.762;2023-03-16T05:17:37;7.93;;;1.40;;
28629;SDS011;15817;42.130;24.762;2023-03-16T05:20:04;4.13;;;1.50;;
28629;SDS011;15817;42.130;24.762;2023-03-16T05:22:33;3.00;;;1.40;;
28629;SDS011;15817;42.130;24.762;2023-03-16T05:25:10;17.92;;;1.60;;
28629;SDS011;15817;42.130;24.762;2023-03-16T05:27:50;3.30;;;1.63;;
28629;SDS011;15817;42.130;24.762;2023-03-16T05:30:26;2.08;;;1.60;;
28629;SDS011;15817;42.130;24.762;2023-03-16T05:32:53;3.80;;;1.30;;
28629;SDS011;15817;42.130;24.762;2023-03-16T05:35:22;2.83;;;1.50;;
28629;SDS011;15817;42.130;24.762;2023-03-16T05:37:51;8.55;;;1.33;;
28629;SDS011;15817;42.130;24.762;2023-03-16T05:40:18;3.15;;;1.05;;
28629;SDS011;15817;42.130;24.762;2023-03-16T05:42:59;5.35;;;1.15;;
28629;SDS011;15817;42.130;24.762;2023-03-16T05:45:26;6.28;;;1.70;;
28629;SDS011;15817;42.130;24.762;2023-03-16T05:48:11;6.18;;;2.08;;
28629;SDS011;15817;42.130;24.762;2023-03-16T05:50:43;4.20;;;1.88;;
28629;SDS011;15817;42.130;24.762;2023-03-16T05:53:11;4.38;;;1.50;;
28629;SDS011;15817;42.130;24.762;2023-03-16T05:55:39;5.35;;;1.33;;
28629;SDS011;15817;42.130;24.762;2023-03-16T05:58:09;4.20;;;1.70;;
28629;SDS011;15817;42.130;24.762;2023-03-16T06:00:39;5.68;;;2.38;;
28629;SDS011;15817;42.130;24.762;2023-03-16T06:03:16;6.78;;;1.40;;
28629;SDS011;15817;42.130;24.762;2023-03-16T06:05:42;2.55;;;1.55;;
28629;SDS011;15817;42.130;24.762;2023-03-16T06:08:08;7.25;;;3.00;;
28629;SDS011;15817;42.130;24.762;2023-03-16T06:10:35;2.05;;;1.40;;
28629;SDS011;15817;42.130;24.762;2023-03-16T06:13:01;2.25;;;1.38;;
28629;SDS011;15817;42.130;24.762;2023-03-16T06:15:27;3.72;;;1.15;;
28629;SDS011;15817;42.130;24.762;2023-03-16T06:17:59;3.30;;;1.33;;
28629;SDS011;15817;42.130;24.762;2023-03-16T06:20:25;5.45;;;1.15;;
28629;SDS011;15817;42.130;24.762;2023-03-16T06:22:54;12.02;;;1.40;;
28629;SDS011;15817;42.130;24.762;2023-03-16T06:25:20;8.23;;;1.30;;
28629;SDS011;15817;42.130;24.762;2023-03-16T06:28:07;5.88;;;1.52;;
28629;SDS011;15817;42.130;24.762;2023-03-16T06:30:35;2.95;;;1.70;;
28629;SDS011;15817;42.130;24.762;2023-03-16T06:33:05;4.05;;;1.70;;
28629;SDS011;15817;42.130;24.762;2023-03-16T06:35:43;7.50;;;1.15;;
28629;SDS011;15817;42.130;24.762;2023-03-16T06:38:15;27.10;;;3.20;;
28629;SDS011;15817;42.130;24.762;2023-03-16T06:40:59;5.03;;;1.58;;
28629;SDS011;15817;42.130;24.762;2023-03-16T06:43:28;3.22;;;1.05;;
28629;SDS011;15817;42.130;24.762;2023-03-16T06:45:54;7.50;;;3.40;;
28629;SDS011;15817;42.130;24.762;2023-03-16T06:48:21;10.90;;;2.00;;
28629;SDS011;15817;42.130;24.762;2023-03-16T06:51:02;6.57;;;1.60;;
28629;SDS011;15817;42.130;24.762;2023-03-16T06:53:29;2.05;;;1.30;;
28629;SDS011;15817;42.130;24.762;2023-03-16T06:55:57;6.63;;;1.80;;
28629;SDS011;15817;42.130;24.762;2023-03-16T06:58:25;11.85;;;1.40;;
28629;SDS011;15817;42.130;24.762;2023-03-16T07:00:51;5.03;;;1.42;;
28629;SDS011;15817;42.130;24.762;2023-03-16T07:03:18;3.60;;;1.10;;
28629;SDS011;15817;42.130;24.762;2023-03-16T07:05:58;3.90;;;1.25;;
28629;SDS011;15817;42.130;24.762;2023-03-16T07:08:29;8.23;;;1.65;;
28629;SDS011;15817;42.130;24.762;2023-03-16T07:10:58;9.77;;;1.60;;
28629;SDS011;15817;42.130;24.762;2023-03-16T07:13:26;2.03;;;1.20;;
28629;SDS011;15817;42.130;24.762;2023-03-16T07:15:53;6.93;;;1.65;;
28629;SDS011;15817;42.130;24.762;2023-03-16T07:18:33;3.85;;;1.48;;
28629;SDS011;15817;42.130;24.762;2023-03-16T07:21:05;5.50;;;1.80;;
28629;SDS011;15817;42.130;24.762;2023-03-16T07:23:38;7.95;;;1.60;;
28629;SDS011;15817;42.130;24.762;2023-03-16T07:26:06;4.07;;;1.00;;
28629;SDS011;15817;42.130;24.762;2023-03-16T07:28:45;6.15;;;1.30;;
28629;SDS011;15817;42.130;24.762;2023-03-16T07:31:13;5.68;;;1.67;;
28629;SDS011;15817;42.130;24.762;2023-03-16T07:33:44;5.38;;;1.52;;
28629;SDS011;15817;42.130;24.762;2023-03-16T07:36:24;5.60;;;1.73;;
28629;SDS011;15817;42.130;24.762;2023-03-16T07:38:55;9.00;;;1.98;;
28629;SDS011;15817;42.130;24.762;2023-03-16T07:41:20;2.80;;;1.65;;
28629;SDS011;15817;42.130;24.762;2023-03-16T07:43:50;8.77;;;2.10;;
28629;SDS011;15817;42.130;24.762;2023-03-16T07:46:16;7.30;;;2.25;;
28629;SDS011;15817;42.130;24.762;2023-03-16T07:48:43;10.63;;;2.75;;
28629;SDS011;15817;42.130;24.762;2023-03-16T07:51:10;5.57;;;1.88;;
28629;SDS011;15817;42.130;24.762;2023-03-16T07:53:37;4.10;;;2.08;;
28629;SDS011;15817;42.130;24.762;2023-03-16T07:56:14;4.78;;;1.88;;
28629;SDS011;15817;42.130;24.762;2023-03-16T07:58:43;10.02;;;1.85;;
28629;SDS011;15817;42.130;24.762;2023-03-16T08:01:12;4.63;;;1.27;;
28629;SDS011;15817;42.130;24.762;2023-03-16T08:03:38;5.03;;;3.08;;
28629;SDS011;15817;42.130;24.762;2023-03-16T08:06:08;4.35;;;1.80;;
28629;SDS011;15817;42.130;24.762;2023-03-16T08:08:34;7.13;;;1.70;;
28629;SDS011;15817;42.130;24.762;2023-03-16T08:11:00;4.15;;;1.70;;
28629;SDS011;15817;42.130;24.762;2023-03-16T08:13:41;6.25;;;1.40;;
28629;SDS011;15817;42.130;24.762;2023-03-16T08:16:09;13.50;;;1.70;;
28629;SDS011;15817;42.130;24.762;2023-03-16T08:18:37;9.10;;;2.25;;
28629;SDS011;15817;42.130;24.762;2023-03-16T08:21:05;3.40;;;1.38;;
28629;SDS011;15817;42.130;24.762;2023-03-16T08:23:37;7.18;;;1.90;;
28629;SDS011;15817;42.130;24.762;2023-03-16T08:26:09;8.23;;;1.45;;
28629;SDS011;15817;42.130;24.762;2023-03-16T08:28:42;15.55;;;1.95;;
28629;SDS011;15817;42.130;24.762;2023-03-16T08:31:10;6.15;;;1.30;;
28629;SDS011;15817;42.130;24.762;2023-03-16T08:33:59;8.23;;;1.92;;
28629;SDS011;15817;42.130;24.762;2023-03-16T08:36:36;10.50;;;2.05;;
28629;SDS011;15817;42.130;24.762;2023-03-16T08:39:07;5.75;;;0.90;;
28629;SDS011;15817;42.130;24.762;2023-03-16T08:41:39;2.83;;;0.93;;
28629;SDS011;15817;42.130;24.762;2023-03-16T08:44:23;4.78;;;1.08;;
28629;SDS011;15817;42.130;24.762;2023-03-16T08:46:59;3.28;;;0.95;;
28629;SDS011;15817;42.130;24.762;2023-03-16T08:49:26;4.65;;;1.00;;
28629;SDS011;15817;42.130;24.762;2023-03-16T08:52:05;5.75;;;1.10;;
28629;SDS011;15817;42.130;24.762;2023-03-16T08:54:42;10.55;;;2.00;;
28629;SDS011;15817;42.130;24.762;2023-03-16T08:57:08;6.28;;;0.95;;
28629;SDS011;15817;42.130;24.762;2023-03-16T08:59:37;1.83;;;0.90;;
28629;SDS011;15817;42.130;24.762;2023-03-16T09:02:03;2.35;;;0.77;;
28629;SDS011;15817;42.130;24.762;2023-03-16T09:04:43;4.07;;;1.60;;
28629;SDS011;15817;42.130;24.762;2023-03-16T09:07:12;1.40;;;0.80;;
28629;SDS011;15817;42.130;24.762;2023-03-16T09:10:23;5.10;;;0.98;;
28629;SDS011;15817;42.130;24.762;2023-03-16T09:12:49;3.00;;;0.93;;
28629;SDS011;15817;42.130;24.762;2023-03-16T09:15:19;6.82;;;1.40;;
28629;SDS011;15817;42.130;24.762;2023-03-16T09:17:47;1.77;;;0.93;;
28629;SDS011;15817;42.130;24.762;2023-03-16T09:20:24;4.30;;;0.90;;
28629;SDS011;15817;42.130;24.762;2023-03-16T09:22:51;5.60;;;1.40;;
28629;SDS011;15817;42.130;24.762;2023-03-16T09:25:26;12.68;;;2.25;;
28629;SDS011;15817;42.130;24.762;2023-03-16T09:28:01;1.45;;;0.60;;
28629;SDS011;15817;42.130;24.762;2023-03-16T09:30:27;4.53;;;1.00;;
28629;SDS011;15817;42.130;24.762;2023-03-16T09:32:53;7.20;;;1.77;;
28629;SDS011;15817;42.130;24.762;2023-03-16T09:35:21;7.57;;;1.00;;
28629;SDS011;15817;42.130;24.762;2023-03-16T09:37:51;5.15;;;1.33;;
28629;SDS011;15817;42.130;24.762;2023-03-16T09:40:24;1.90;;;1.17;;
28629;SDS011;15817;42.130;24.762;2023-03-16T09:48:51;5.55;;;1.17;;
28629;SDS011;15817;42.130;24.762;2023-03-16T09:51:20;3.45;;;0.70;;
28629;SDS011;15817;42.130;24.762;2023-03-16T09:54:11;11.05;;;1.75;;
28629;SDS011;15817;42.130;24.762;2023-03-16T09:57:39;8.80;;;1.42;;
28629;SDS011;15817;42.130;24.762;2023-03-16T10:00:22;1.42;;;0.88;;
28629;SDS011;15817;42.130;24.762;2023-03-16T10:05:34;4.80;;;1.17;;
28629;SDS011;15817;42.130;24.762;2023-03-16T10:08:15;3.22;;;0.90;;
28629;SDS011;15817;42.130;24.762;2023-03-16T10:16:07;13.38;;;1.15;;
28629;SDS011;15817;42.130;24.762;2023-03-16T10:19:02;6.60;;;1.10;;
28629;SDS011;15817;42.130;24.762;2023-03-16T10:21:43;3.90;;;0.80;;
28629;SDS011;15817;42.130;24.762;2023-03-16T10:27:24;6.53;;;1.20;;
28629;SDS011;15817;42.130;24.762;2023-03-16T10:29:59;1.75;;;1.13;;
28629;SDS011;15817;42.130;24.762;2023-03-16T10:32:29;1.58;;;1.00;;
28629;SDS011;15817;42.130;24.762;2023-03-16T10:35:06;9.48;;;1.60;;
28629;SDS011;15817;42.130;24.762;2023-03-16T10:37:43;3.72;;;1.58;;
28629;SDS011;15817;42.130;24.762;2023-03-16T10:40:10;7.65;;;1.30;;
28629;SDS011;15817;42.130;24.762;2023-03-16T10:42:47;2.53;;;0.82;;
28629;SDS011;15817;42.130;24.762;2023-03-16T10:45:23;4.95;;;1.20;;
28629;SDS011;15817;42.130;24.762;2023-03-16T10:48:12;2.75;;;1.40;;
28629;SDS011;15817;42.130;24.762;2023-03-16T10:50:47;12.32;;;1.52;;
28629;SDS011;15817;42.130;24.762;2023-03-16T10:53:22;7.45;;;1.08;;
28629;SDS011;15817;42.130;24.762;2023-03-16T10:55:56;4.88;;;1.02;;
28629;SDS011;15817;42.130;24.762;2023-03-16T10:58:32;4.22;;;1.50;;
28629;SDS011;15817;42.130;24.762;2023-03-16T11:01:00;1.10;;;0.95;;
28629;SDS011;15817;42.130;24.762;2023-03-16T11:03:36;3.05;;;0.90;;
28629;SDS011;15817;42.130;24.762;2023-03-16T11:06:16;2.58;;;1.30;;
28629;SDS011;15817;42.130;24.762;2023-03-16T11:08:54;7.13;;;1.10;;
28629;SDS011;15817;42.130;24.762;2023-03-16T11:11:34;7.75;;;1.13;;
28629;SDS011;15817;42.130;24.762;2023-03-16T11:14:02;6.80;;;1.48;;
28629;SDS011;15817;42.130;24.762;2023-03-16T11:22:23;8.30;;;1.55;;
28629;SDS011;15817;42.130;24.762;2023-03-16T11:27:39;6.68;;;1.13;;
28629;SDS011;15817;42.130;24.762;2023-03-16T11:30:22;7.32;;;1.60;;
28629;SDS011;15817;42.130;24.762;2023-03-16T11:33:09;3.78;;;1.52;;
28629;SDS011;15817;42.130;24.762;2023-03-16T11:45:07;6.40;;;1.33;;
28629;SDS011;15817;42.130;24.762;2023-03-16T11:50:16;5.80;;;1.65;;
28629;SDS011;15817;42.130;24.762;2023-03-16T11:53:02;6.63;;;1.35;;
28629;SDS011;15817;42.130;24.762;2023-03-16T12:01:46;4.07;;;1.20;;
28629;SDS011;15817;42.130;24.762;2023-03-16T12:04:35;4.05;;;1.30;;
28629;SDS011;15817;42.130;24.762;2023-03-16T12:18:25;3.92;;;1.30;;
28629;SDS011;15817;42.130;24.762;2023-03-16T12:21:30;2.78;;;1.60;;
28629;SDS011;15817;42.130;24.762;2023-03-16T12:24:17;6.07;;;1.52;;
28629;SDS011;15817;42.130;24.762;2023-03-16T12:26:46;4.78;;;1.70;;
28629;SDS011;15817;42.130;24.762;2023-03-16T12:40:42;4.32;;;1.80;;
28629;SDS011;15817;42.130;24.762;2023-03-16T12:43:17;6.30;;;1.65;;
28629;SDS011;15817;42.130;24.762;2023-03-16T12:46:08;3.20;;;1.45;;
28629;SDS011;15817;42.130;24.762;2023-03-16T12:48:48;10.55;;;2.70;;
28629;SDS011;15817;42.130;24.762;2023-03-16T12:51:30;14.52;;;2.10;;
28629;SDS011;15817;42.130;24.762;2023-03-16T12:54:20;7.68;;;1.98;;
28629;SDS011;15817;42.130;24.762;2023-03-16T12:57:03;4.95;;;1.48;;
28629;SDS011;15817;42.130;24.762;2023-03-16T12:59:40;4.28;;;2.30;;
28629;SDS011;15817;42.130;24.762;2023-03-16T13:02:18;5.47;;;1.50;;
28629;SDS011;15817;42.130;24.762;2023-03-16T13:04:56;5.63;;;1.13;;
28629;SDS011;15817;42.130;24.762;2023-03-16T13:08:03;3.95;;;1.55;;
28629;SDS011;15817;42.130;24.762;2023-03-16T13:10:36;2.95;;;1.40;;
28629;SDS011;15817;42.130;24.762;2023-03-16T13:13:14;11.35;;;2.35;;
28629;SDS011;15817;42.130;24.762;2023-03-16T13:16:08;6.85;;;2.10;;
28629;SDS011;15817;42.130;24.762;2023-03-16T13:18:50;3.67;;;1.70;;
28629;SDS011;15817;42.130;24.762;2023-03-16T13:21:24;8.88;;;1.90;;
28629;SDS011;15817;42.130;24.762;2023-03-16T13:24:35;9.63;;;2.60;;
28629;SDS011;15817;42.130;24.762;2023-03-16T13:27:21;14.07;;;2.42;;
28629;SDS011;15817;42.130;24.762;2023-03-16T13:30:01;3.88;;;1.45;;
28629;SDS011;15817;42.130;24.762;2023-03-16T13:32:43;7.20;;;2.10;;
28629;SDS011;15817;42.130;24.762;2023-03-16T13:35:41;6.18;;;1.60;;
28629;SDS011;15817;42.130;24.762;2023-03-16T13:38:14;8.02;;;2.33;;
28629;SDS011;15817;42.130;24.762;2023-03-16T13:40:49;6.50;;;1.50;;
28629;SDS011;15817;42.130;24.762;2023-03-16T13:43:23;4.00;;;1.85;;
28629;SDS011;15817;42.130;24.762;2023-03-16T13:46:11;4.72;;;1.67;;
28629;SDS011;15817;42.130;24.762;2023-03-16T13:48:47;6.85;;;2.08;;
28629;SDS011;15817;42.130;24.762;2023-03-16T13:51:18;8.18;;;1.80;;
28629;SDS011;15817;42.130;24.762;2023-03-16T13:53:50;4.75;;;1.85;;
28629;SDS011;15817;42.130;24.762;2023-03-16T13:56:22;9.93;;;2.33;;
28629;SDS011;15817;42.130;24.762;2023-03-16T13:58:54;9.45;;;2.95;;
28629;SDS011;15817;42.130;24.762;2023-03-16T14:03:50;2.67;;;1.90;;
28629;SDS011;15817;42.130;24.762;2023-03-16T14:06:28;8.10;;;1.85;;
28629;SDS011;15817;42.130;24.762;2023-03-16T14:09:06;9.05;;;2.67;;
28629;SDS011;15817;42.130;24.762;2023-03-16T14:11:53;3.72;;;1.63;;
28629;SDS011;15817;42.130;24.762;2023-03-16T14:14:29;10.98;;;2.20;;
28629;SDS011;15817;42.130;24.762;2023-03-16T14:17:08;8.15;;;1.92;;
28629;SDS011;15817;42.130;24.762;2023-03-16T14:19:47;12.48;;;2.08;;
28629;SDS011;15817;42.130;24.762;2023-03-16T14:22:30;7.82;;;1.67;;
28629;SDS011;15817;42.130;24.762;2023-03-16T14:24:59;6.35;;;1.85;;
28629;SDS011;15817;42.130;24.762;2023-03-16T14:30:26;13.82;;;2.25;;
28629;SDS011;15817;42.130;24.762;2023-03-16T14:33:00;15.52;;;2.55;;
28629;SDS011;15817;42.130;24.762;2023-03-16T14:35:52;6.03;;;2.15;;
28629;SDS011;15817;42.130;24.762;2023-03-16T14:38:31;7.95;;;1.88;;
28629;SDS011;15817;42.130;24.762;2023-03-16T14:43:44;8.13;;;2.30;;
28629;SDS011;15817;42.130;24.762;2023-03-16T14:46:16;10.15;;;1.90;;
28629;SDS011;15817;42.130;24.762;2023-03-16T14:49:06;6.13;;;1.77;;
28629;SDS011;15817;42.130;24.762;2023-03-16T14:51:41;7.93;;;2.05;;
28629;SDS011;15817;42.130;24.762;2023-03-16T14:54:16;9.75;;;2.65;;
28629;SDS011;15817;42.130;24.762;2023-03-16T14:56:59;6.85;;;2.30;;
28629;SDS011;15817;42.130;24.762;2023-03-16T14:59:35;10.65;;;3.10;;
28629;SDS011;15817;42.130;24.762;2023-03-16T15:02:08;5.47;;;2.60;;
28629;SDS011;15817;42.130;24.762;2023-03-16T15:05:02;10.30;;;2.75;;
28629;SDS011;15817;42.130;24.762;2023-03-16T15:07:54;9.98;;;2.30;;
28629;SDS011;15817;42.130;24.762;2023-03-16T15:10:21;7.55;;;2.30;;
28629;SDS011;15817;42.130;24.762;2023-03-16T15:12:56;7.50;;;2.00;;
28629;SDS011;15817;42.130;24.762;2023-03-16T15:16:00;5.60;;;2.20;;
28629;SDS011;15817;42.130;24.762;2023-03-16T15:18:48;6.57;;;2.22;;
28629;SDS011;15817;42.130;24.762;2023-03-16T15:22:01;7.35;;;2.10;;
28629;SDS011;15817;42.130;24.762;2023-03-16T15:24:34;11.50;;;2.72;;
28629;SDS011;15817;42.130;24.762;2023-03-16T15:27:08;3.55;;;2.20;;
28629;SDS011;15817;42.130;24.762;2023-03-16T15:29:52;6.28;;;2.03;;
28629;SDS011;15817;42.130;24.762;2023-03-16T15:32:21;7.57;;;2.38;;
28629;SDS011;15817;42.130;24.762;2023-03-16T15:35:05;3.95;;;2.35;;
28629;SDS011;15817;42.130;24.762;2023-03-16T15:37:52;6.45;;;2.28;;
28629;SDS011;15817;42.130;24.762;2023-03-16T15:40:20;10.93;;;2.08;;
28629;SDS011;15817;42.130;24.762;2023-03-16T15:46:32;3.75;;;2.72;;
28629;SDS011;15817;42.130;24.762;2023-03-16T15:49:31;6.65;;;2.20;;
28629;SDS011;15817;42.130;24.762;2023-03-16T15:51:57;4.82;;;2.10;;
28629;SDS011;15817;42.130;24.762;2023-03-16T15:54:29;7.65;;;2.78;;
28629;SDS011;15817;42.130;24.762;2023-03-16T15:57:01;7.03;;;2.40;;
28629;SDS011;15817;42.130;24.762;2023-03-16T15:59:33;15.02;;;3.00;;
28629;SDS011;15817;42.130;24.762;2023-03-16T16:02:07;7.90;;;2.28;;
28629;SDS011;15817;42.130;24.762;2023-03-16T16:05:07;2.85;;;1.92;;
28629;SDS011;15817;42.130;24.762;2023-03-16T16:07:38;6.47;;;2.10;;
28629;SDS011;15817;42.130;24.762;2023-03-16T16:10:16;4.28;;;2.08;;
28629;SDS011;15817;42.130;24.762;2023-03-16T16:12:47;3.85;;;2.28;;
28629;SDS011;15817;42.130;24.762;2023-03-16T16:15:29;5.68;;;1.95;;
28629;SDS011;15817;42.130;24.762;2023-03-16T16:18:27;3.97;;;1.98;;
28629;SDS011;15817;42.130;24.762;2023-03-16T16:21:13;5.55;;;1.73;;
28629;SDS011;15817;42.130;24.762;2023-03-16T16:23:42;4.32;;;2.05;;
28629;SDS011;15817;42.130;24.762;2023-03-16T16:26:19;2.55;;;2.00;;
28629;SDS011;15817;42.130;24.762;2023-03-16T16:29:00;3.80;;;2.20;;
28629;SDS011;15817;42.130;24.762;2023-03-16T16:31:32;4.45;;;2.13;;
28629;SDS011;15817;42.130;24.762;2023-03-16T16:34:08;3.05;;;2.30;;
28629;SDS011;15817;42.130;24.762;2023-03-16T16:39:42;2.55;;;2.20;;
28629;SDS011;15817;42.130;24.762;2023-03-16T16:42:34;4.03;;;2.03;;
28629;SDS011;15817;42.130;24.762;2023-03-16T16:45:24;5.00;;;1.75;;
28629;SDS011;15817;42.130;24.762;2023-03-16T16:48:19;9.02;;;2.10;;
28629;SDS011;15817;42.130;24.762;2023-03-16T16:51:17;4.22;;;2.10;;
28629;SDS011;15817;42.130;24.762;2023-03-16T16:54:29;5.70;;;2.47;;
28629;SDS011;15817;42.130;24.762;2023-03-16T17:00:03;7.95;;;2.53;;
28629;SDS011;15817;42.130;24.762;2023-03-16T17:02:42;5.10;;;2.05;;
28629;SDS011;15817;42.130;24.762;2023-03-16T17:05:37;3.80;;;2.58;;
28629;SDS011;15817;42.130;24.762;2023-03-16T17:08:10;3.05;;;2.70;;
28629;SDS011;15817;42.130;24.762;2023-03-16T17:10:51;10.02;;;3.00;;
28629;SDS011;15817;42.130;24.762;2023-03-16T17:13:44;3.13;;;2.17;;
28629;SDS011;15817;42.130;24.762;2023-03-16T17:16:20;6.70;;;3.00;;
28629;SDS011;15817;42.130;24.762;2023-03-16T17:22:25;4.75;;;2.25;;
28629;SDS011;15817;42.130;24.762;2023-03-16T17:28:07;4.40;;;2.45;;
28629;SDS011;15817;42.130;24.762;2023-03-16T17:30:58;5.68;;;2.78;;
28629;SDS011;15817;42.130;24.762;2023-03-16T17:33:53;6.03;;;2.97;;
28629;SDS011;15817;42.130;24.762;2023-03-16T17:36:46;3.30;;;2.30;;
28629;SDS011;15817;42.130;24.762;2023-03-16T17:39:38;4.97;;;2.35;;
28629;SDS011;15817;42.130;24.762;2023-03-16T17:45:24;6.53;;;3.78;;
28629;SDS011;15817;42.130;24.762;2023-03-16T17:47:54;7.25;;;4.00;;
28629;SDS011;15817;42.130;24.762;2023-03-16T17:50:30;18.52;;;3.88;;
28629;SDS011;15817;42.130;24.762;2023-03-16T17:56:04;7.65;;;3.33;;
28629;SDS011;15817;42.130;24.762;2023-03-16T17:58:51;7.82;;;3.35;;
28629;SDS011;15817;42.130;24.762;2023-03-16T18:02:02;6.38;;;3.08;;
28629;SDS011;15817;42.130;24.762;2023-03-16T18:05:42;8.20;;;3.35;;